Ramsey, IL

3:38 AM CDT on March 31, 2015 (GMT -0500)
Litchfield | | Change Station
CLOSE
Current Station
Airport
Location: Litchfield,
Elevation: 689 ft
Nearby Weather Stations

Elev 689 ft 39.16 °N, 89.67 °W | Updated 23 minutes ago

Clear
Clear
45 °F
Feels Like 40 °F
N
9
Wind Variable Wind from SSW

Today
High -- | Low -- °F
--% Chance of Precip.
Yesterday
High -- | Low -- °F
Precip. -- in
6:42 AM 7:18 PM
Waxing Gibbous, 85% visible
Pressure 29.88 in
Visibility 10.0 miles
Clouds Clear
Windchill 40 °F
Dew Point 36 °F
Humidity 71%
Rainfall 0.00 in
Snow Depth Not available.
UV 0 out of 12
Pollen 8.80 out of 12
Air Quality Not available.
Flu Activity Not available.
METAR K3LF 310815Z AUTO 20008KT 10SM CLR 07/02 A2988 RMK AO2 T00720022

More Conditions Fewer Conditions

Pressure 29.88 in
Visibility 10.0 miles
Clouds Clear
Windchill 40 °F
Dew Point 36 °F
Humidity 71%
Rainfall 0.00 in
Snow Depth Not available.
UV 0 out of 12
Pollen 8.80 out of 12
Air Quality Not available.
Flu Activity Not available.
METAR K3LF 310815Z AUTO 20008KT 10SM CLR 07/02 A2988 RMK AO2 T00720022

More Conditions Fewer Conditions

10-Day Weather Forecast

Almanac

Astronomy

Mar. 31, 2015 Rise Set
Actual Time
Civil Twilight
Nautical Twilight
Astronomical Twilight
Moon
Length of Visible Light
Length of Day
Tomorrow will be .
, % of the Moon is Illuminated

Today's Extremes

State Highs State Lows

Community

WunderPhotos

Upload Photos

1,809,732 photos uploaded!

WunderBlogs® & News

Nearby

Air Quality

  Air Quality AQ Index Pollutant
Not available.

Snow Depth

Station Depth Elevation

Earthquake Activity

City Distance Mag. Time & Date
Minimum magnitude displayed is 2.5.

Coastal Water Temperatures

Place Temperature

Stations

Nearby Weather Stations

Station Location Temp. Windchill Dew Point Humidity Wind Precip. Elev Updated Type